Time;durP1;ratioP1;P1;durP2;ratioP2;P2;SDS_P1;SDS_P2;PMS_P1;PMS_P2;Temp;Humidity;BMP_temperature;BMP_pressure;BME280_temperature;BME280_humidity;BME280_pressure;Samples;Min_cycle;Max_cycle;Signal;HPM_P1;HPM_P2
2022/03/10 00:01:18;;;;;;;26.83;16.30;;;;;;;2.87;54.03;101764.38;5003694;28;20077;-83
2022/03/10 00:03:44;;;;;;;25.52;16.42;;;;;;;2.79;54.48;101766.53;5004723;28;20463;-83
2022/03/10 00:06:20;;;;;;;27.38;15.95;;;;;;;2.74;55.82;101772.84;5003717;28;20409;-83
2022/03/10 00:08:47;;;;;;;29.63;16.48;;;;;;;2.66;56.11;101781.00;5003364;28;20129;-83
2022/03/10 00:11:13;;;;;;;27.67;16.80;;;;;;;2.59;56.51;101775.28;5002899;28;20070;-84
2022/03/10 00:13:41;;;;;;;30.77;17.33;;;;;;;2.55;57.11;101778.09;5004516;28;20074;-83
2022/03/10 00:16:08;;;;;;;29.35;18.05;;;;;;;2.42;57.53;101774.44;5003319;28;20489;-83
2022/03/10 00:18:34;;;;;;;31.10;17.75;;;;;;;2.32;57.94;101768.94;5010860;28;20073;-83
2022/03/10 00:21:01;;;;;;;29.52;17.70;;;;;;;2.30;58.10;101783.66;5008973;28;20086;-84
2022/03/10 00:23:29;;;;;;;33.22;17.75;;;;;;;2.26;58.05;101776.97;5006722;28;20465;-83
2022/03/10 00:25:56;;;;;;;29.13;17.33;;;;;;;2.17;58.24;101783.41;5005986;28;20092;-82
2022/03/10 00:28:22;;;;;;;27.88;17.65;;;;;;;2.17;58.21;101786.00;5006547;28;20477;-82
2022/03/10 00:30:52;;;;;;;28.92;17.90;;;;;;;2.12;59.24;101772.47;5007209;28;20106;-82
2022/03/10 00:33:19;;;;;;;32.45;17.85;;;;;;;2.21;59.37;101776.34;5008881;28;20089;-82
2022/03/10 00:35:46;;;;;;;28.73;16.80;;;;;;;2.26;58.14;101771.81;5002843;28;20054;-82
2022/03/10 00:38:15;;;;;;;28.92;17.50;;;;;;;2.44;57.04;101775.22;5002204;28;20133;-82
2022/03/10 00:40:46;;;;;;;28.48;17.55;;;;;;;2.46;56.76;101770.81;5007497;28;20050;-83
2022/03/10 00:43:17;;;;;;;29.98;16.23;;;;;;;2.50;56.80;101770.56;5007515;28;20087;-82
2022/03/10 00:45:43;;;;;;;31.48;16.70;;;;;;;2.50;56.97;101780.06;5007086;28;20516;-82
2022/03/10 00:48:10;;;;;;;26.67;16.48;;;;;;;2.43;56.96;101786.44;5006408;28;20088;-82
2022/03/10 00:54:26;;;;;;;29.92;17.85;;;;;;;2.46;56.83;101788.88;5009317;28;20061;-82
2022/03/10 01:06:06;;;;;;;25.75;16.35;;;;;;;2.37;57.03;101791.91;4932666;29;20554;-85
2022/03/10 01:08:33;;;;;;;29.40;17.43;;;;;;;2.39;56.42;101784.94;4947822;29;20055;-85
2022/03/10 01:10:59;;;;;;;25.95;17.48;;;;;;;2.40;56.30;101792.59;4991521;28;20054;-84
2022/03/10 01:13:30;;;;;;;26.88;16.92;;;;;;;2.42;56.51;101795.94;5008197;28;20054;-84
2022/03/10 01:15:57;;;;;;;28.35;16.90;;;;;;;2.25;56.40;101783.03;5007121;28;20093;-84
2022/03/10 01:18:23;;;;;;;26.10;15.70;;;;;;;2.26;56.55;101784.72;5006920;28;20203;-84
2022/03/10 01:20:52;;;;;;;28.45;16.20;;;;;;;2.09;56.35;101771.78;5006425;28;20058;-84
2022/03/10 01:23:19;;;;;;;26.80;16.00;;;;;;;2.25;56.44;101791.63;5006635;28;20516;-84
2022/03/10 01:25:46;;;;;;;25.50;15.77;;;;;;;2.12;57.34;101782.78;5006603;28;20050;-84
2022/03/10 01:28:12;;;;;;;24.83;15.75;;;;;;;2.12;57.02;101787.97;5005426;28;20413;-83
2022/03/10 01:30:42;;;;;;;24.48;16.17;;;;;;;2.05;56.98;101786.56;5006423;28;20385;-85
2022/03/10 01:33:09;;;;;;;26.48;15.35;;;;;;;2.17;56.83;101788.56;5006317;28;20085;-84
2022/03/10 01:35:36;;;;;;;25.08;15.73;;;;;;;2.17;56.64;101786.00;5004473;28;20078;-83
2022/03/10 01:38:03;;;;;;;25.80;15.70;;;;;;;2.16;55.84;101779.16;5003960;28;20061;-83
2022/03/10 01:40:30;;;;;;;26.40;16.55;;;;;;;2.17;56.28;101775.66;5003842;28;20047;-83
2022/03/10 01:43:00;;;;;;;25.55;15.57;;;;;;;2.04;56.29;101759.09;5003923;28;20128;-83
2022/03/10 01:45:32;;;;;;;28.20;17.02;;;;;;;2.05;56.93;101765.09;5003679;28;20050;-83
2022/03/10 01:48:05;;;;;;;30.75;16.05;;;;;;;2.08;57.26;101777.84;5004355;28;20039;-82
2022/03/10 01:50:41;;;;;;;24.70;15.23;;;;;;;2.05;56.66;101750.44;5003727;28;20057;-83
2022/03/10 01:53:10;;;;;;;28.67;16.50;;;;;;;2.12;56.34;101754.38;5003799;28;20081;-83
2022/03/10 01:55:37;;;;;;;27.75;16.38;;;;;;;2.15;56.88;101772.31;5003724;28;20050;-83
2022/03/10 01:58:04;;;;;;;27.13;15.10;;;;;;;2.15;57.04;101766.31;5004656;28;20054;-81
2022/03/10 02:00:31;;;;;;;24.00;15.80;;;;;;;1.83;57.59;101752.38;5002288;28;20424;-81
2022/03/10 02:02:58;;;;;;;26.73;15.80;;;;;;;1.92;58.25;101765.66;5008791;28;20137;-83
2022/03/10 02:05:26;;;;;;;27.42;16.90;;;;;;;1.95;57.80;101764.69;5013999;28;20047;-82
2022/03/10 02:10:39;;;;;;;28.15;16.50;;;;;;;1.94;58.16;101768.16;5014343;28;20053;-82
2022/03/10 02:13:05;;;;;;;27.13;16.40;;;;;;;1.87;58.06;101759.91;5005017;28;20133;-82
2022/03/10 02:29:00;;;;;;;30.27;15.48;;;;;;;1.82;58.79;101773.94;5005184;28;20069;-82
2022/03/10 02:31:28;;;;;;;28.52;16.48;;;;;;;1.90;58.42;101772.63;5003848;28;20117;-82
2022/03/10 02:33:56;;;;;;;25.30;16.40;;;;;;;1.86;58.40;101758.25;5004315;28;20112;-82
2022/03/10 02:36:23;;;;;;;25.90;16.00;;;;;;;1.84;58.50;101757.47;5004025;28;20474;-83
2022/03/10 02:38:53;;;;;;;28.63;16.42;;;;;;;1.81;58.94;101764.53;5003495;28;20104;-82
2022/03/10 02:41:21;;;;;;;28.88;16.65;;;;;;;1.77;59.02;101763.00;5002869;28;20500;-83
2022/03/10 02:44:28;;;;;;;29.65;17.15;;;;;;;1.70;59.60;101759.84;5002918;28;20062;-83
2022/03/10 02:47:02;;;;;;;28.52;17.35;;;;;;;1.66;59.64;101769.47;5002911;28;20054;-83
2022/03/10 02:49:31;;;;;;;29.88;17.60;;;;;;;1.59;59.79;101756.94;5003326;28;20132;-84
2022/03/10 02:52:09;;;;;;;28.23;16.70;;;;;;;1.56;59.94;101750.16;4986910;28;20058;-83
2022/03/10 02:54:39;;;;;;;27.08;16.38;;;;;;;1.58;59.96;101755.25;5003910;28;20066;-83
2022/03/10 02:57:31;;;;;;;27.27;16.05;;;;;;;1.41;60.72;101737.16;5004583;28;20081;-83
2022/03/10 03:00:17;;;;;;;28.10;16.42;;;;;;;1.52;60.36;101756.38;4985925;28;20050;-83
2022/03/10 03:02:47;;;;;;;29.27;17.58;;;;;;;1.35;60.54;101722.81;5003204;28;20050;-84
2022/03/10 03:05:19;;;;;;;30.20;16.50;;;;;;;1.37;60.38;101727.91;5005884;28;20074;-84
2022/03/10 03:07:51;;;;;;;30.65;17.58;;;;;;;1.34;60.62;101728.88;5004256;28;20057;-85
2022/03/10 03:10:38;;;;;;;33.05;17.42;;;;;;;1.29;61.00;101733.41;4987116;28;20058;-84
2022/03/10 03:13:11;;;;;;;29.52;16.98;;;;;;;1.36;61.47;101758.00;5005370;28;20054;-82
2022/03/10 03:15:44;;;;;;;27.60;17.17;;;;;;;1.17;61.74;101739.09;5004812;28;20054;-82
2022/03/10 03:18:30;;;;;;;31.67;17.30;;;;;;;1.03;62.32;101742.28;5006876;28;20109;-82
2022/03/10 03:21:04;;;;;;;25.45;15.80;;;;;;;1.17;61.96;101765.72;5005571;28;20104;-84
2022/03/10 03:23:31;;;;;;;26.17;15.90;;;;;;;1.20;62.01;101765.59;5005760;28;20053;-84
2022/03/10 03:25:57;;;;;;;31.42;16.45;;;;;;;1.16;62.02;101768.38;5006345;28;20055;-84
2022/03/10 03:28:25;;;;;;;28.40;16.83;;;;;;;1.18;62.04;101769.97;5005752;28;20050;-84
2022/03/10 03:33:38;;;;;;;29.02;16.85;;;;;;;1.14;61.97;101739.22;5091224;23;20063;-87
2022/03/10 03:36:05;;;;;;;31.35;16.63;;;;;;;1.16;61.99;101760.63;5065079;28;20053;-86
2022/03/10 03:38:32;;;;;;;32.75;17.38;;;;;;;1.12;61.92;101749.63;5064877;28;20053;-83
2022/03/10 03:40:58;;;;;;;32.15;17.55;;;;;;;1.15;62.00;101766.69;5063720;28;20049;-83
2022/03/10 03:43:25;;;;;;;30.92;16.15;;;;;;;1.23;61.88;101764.63;5064150;28;20105;-83
2022/03/10 03:45:52;;;;;;;28.38;16.88;;;;;;;1.13;62.17;101758.19;5065495;28;20464;-84
2022/03/10 03:48:18;;;;;;;29.10;16.73;;;;;;;1.04;62.22;101754.28;5065601;28;20091;-83
2022/03/10 03:50:46;;;;;;;32.45;17.25;;;;;;;1.08;62.60;101763.53;5065735;28;20060;-83
2022/03/10 03:53:13;;;;;;;29.88;17.17;;;;;;;1.02;63.18;101771.53;5063564;28;20067;-84
2022/03/10 03:55:40;;;;;;;28.40;17.67;;;;;;;1.04;62.87;101766.31;5060142;28;20044;-85
2022/03/10 03:58:06;;;;;;;32.65;18.05;;;;;;;0.94;63.61;101771.91;5057851;28;20132;-86
2022/03/10 04:00:34;;;;;;;30.33;18.00;;;;;;;0.94;63.55;101782.22;5069029;28;20045;-85
2022/03/10 04:03:07;;;;;;;33.03;18.35;;;;;;;0.90;63.90;101777.25;5071678;28;20053;-85
2022/03/10 04:05:33;;;;;;;28.33;17.77;;;;;;;0.74;64.31;101764.19;5069149;28;20068;-84
2022/03/10 04:08:01;;;;;;;30.13;18.80;;;;;;;0.77;64.56;101782.09;5060259;28;20044;-84
2022/03/10 04:10:28;;;;;;;29.70;17.63;;;;;;;0.70;64.33;101790.13;5063858;28;20109;-85
2022/03/10 04:12:55;;;;;;;28.15;17.98;;;;;;;0.75;64.59;101783.06;5064130;28;20057;-85
2022/03/10 04:15:21;;;;;;;30.33;17.67;;;;;;;0.74;64.87;101782.22;5073206;28;20053;-85
2022/03/10 04:17:48;;;;;;;28.15;17.48;;;;;;;0.74;64.54;101782.22;5071596;28;20115;-81
2022/03/10 04:20:15;;;;;;;30.15;17.67;;;;;;;0.63;65.21;101784.41;5071969;28;20715;-84
2022/03/10 04:22:42;;;;;;;30.98;18.00;;;;;;;0.60;64.97;101776.78;5072341;28;20072;-85
2022/03/10 04:25:10;;;;;;;37.63;18.65;;;;;;;0.52;65.23;101771.13;5071584;28;20049;-85
2022/03/10 04:27:37;;;;;;;33.55;18.35;;;;;;;0.54;64.70;101764.19;5069968;28;20347;-85
2022/03/10 04:30:05;;;;;;;29.67;18.00;;;;;;;0.58;64.66;101766.56;5061556;28;20049;-83
2022/03/10 04:32:42;;;;;;;32.17;17.92;;;;;;;0.62;64.88;101782.72;5063520;28;20049;-85
2022/03/10 04:35:09;;;;;;;36.67;18.65;;;;;;;0.66;65.16;101794.56;5058917;28;20423;-83
2022/03/10 04:37:35;;;;;;;30.45;18.17;;;;;;;0.65;64.97;101787.75;5061236;28;20076;-83
2022/03/10 04:40:04;;;;;;;28.08;17.17;;;;;;;0.57;65.13;101782.91;5061648;28;20045;-83
2022/03/10 04:42:32;;;;;;;32.75;18.20;;;;;;;0.47;64.85;101783.38;5060934;28;20083;-82
2022/03/10 04:44:59;;;;;;;30.60;17.95;;;;;;;0.62;64.54;101803.34;5060949;28;20072;-83
2022/03/10 04:47:26;;;;;;;36.78;19.02;;;;;;;0.55;65.25;101797.59;5060522;28;20131;-83
2022/03/10 04:49:52;;;;;;;29.92;18.55;;;;;;;0.65;64.68;101798.88;5060771;28;20072;-83
2022/03/10 04:52:19;;;;;;;35.92;18.15;;;;;;;0.62;64.84;101782.72;5064094;28;20108;-84
2022/03/10 04:54:46;;;;;;;31.15;17.92;;;;;;;0.57;64.70;101785.50;5053314;28;20131;-83
2022/03/10 04:57:13;;;;;;;28.52;17.23;;;;;;;0.55;65.60;101778.72;5038097;28;20141;-84
2022/03/10 04:59:44;;;;;;;30.70;17.35;;;;;;;0.40;65.78;101787.09;5036225;28;20046;-84
2022/03/10 05:02:13;;;;;;;31.35;18.63;;;;;;;0.30;66.60;101797.78;5035095;28;20050;-83
2022/03/10 05:04:43;;;;;;;28.65;17.23;;;;;;;0.15;66.67;101772.63;5038008;28;20045;-83
2022/03/10 05:07:10;;;;;;;35.05;18.40;;;;;;;0.12;66.72;101777.91;5038328;28;20188;-84
2022/03/10 05:09:40;;;;;;;31.23;18.20;;;;;;;0.23;66.84;101795.50;5040232;28;20053;-84
2022/03/10 05:12:07;;;;;;;34.60;19.20;;;;;;;0.20;66.67;101796.47;5038657;28;20144;-84
2022/03/10 05:14:34;;;;;;;33.20;18.90;;;;;;;0.16;66.94;101794.91;5045479;28;20049;-85
2022/03/10 05:17:03;;;;;;;34.53;19.17;;;;;;;0.18;67.00;101813.69;5045135;28;20133;-85
2022/03/10 05:19:31;;;;;;;34.65;18.25;;;;;;;0.21;67.37;101805.84;5042442;28;20623;-82
2022/03/10 05:21:58;;;;;;;31.50;18.92;;;;;;;0.23;66.64;101805.81;5040110;28;20087;-80
2022/03/10 05:24:25;;;;;;;32.70;18.17;;;;;;;0.23;67.43;101806.63;5040185;28;20136;-80
2022/03/10 05:26:52;;;;;;;35.88;19.02;;;;;;;0.23;67.39;101806.63;5040648;28;20084;-80
2022/03/10 05:29:18;;;;;;;32.70;18.00;;;;;;;0.28;66.84;101807.28;5041291;28;20059;-80
2022/03/10 05:31:45;;;;;;;31.15;18.42;;;;;;;0.24;66.97;101803.16;5040069;28;20080;-82
2022/03/10 05:34:13;;;;;;;30.83;18.45;;;;;;;0.28;66.92;101812.44;5039892;28;20162;-83
2022/03/10 05:36:40;;;;;;;31.15;18.95;;;;;;;0.35;66.89;101804.47;5039150;28;20477;-82
2022/03/10 05:39:07;;;;;;;30.98;18.15;;;;;;;0.36;67.03;101811.31;5038324;28;20055;-82
2022/03/10 05:41:33;;;;;;;34.28;17.92;;;;;;;0.33;66.82;101805.38;5040247;28;20090;-81
2022/03/10 05:44:00;;;;;;;33.97;19.30;;;;;;;0.33;67.26;101807.94;5044011;28;20042;-82
2022/03/10 05:46:27;;;;;;;37.08;18.38;;;;;;;0.28;67.84;101811.59;5049560;28;20069;-82
2022/03/10 05:48:54;;;;;;;31.48;18.23;;;;;;;0.12;67.86;101803.66;5048156;28;20052;-81
2022/03/10 05:51:22;;;;;;;34.50;19.13;;;;;;;0.26;67.27;101805.69;5047595;28;20129;-82
2022/03/10 05:53:49;;;;;;;33.20;18.65;;;;;;;0.30;68.39;101809.81;5047905;28;20056;-81
2022/03/10 05:56:16;;;;;;;37.75;19.95;;;;;;;0.31;67.93;101804.59;5048558;28;20084;-82
2022/03/10 05:58:43;;;;;;;30.88;18.77;;;;;;;0.32;67.54;101815.72;5042301;28;20132;-82
2022/03/10 06:01:11;;;;;;;34.40;17.85;;;;;;;0.27;68.06;101818.50;5040768;28;20068;-83
2022/03/10 06:03:54;;;;;;;31.33;19.42;;;;;;;0.23;67.67;101818.66;5040867;28;20054;-80
2022/03/10 06:06:57;;;;;;;32.25;17.98;;;;;;;0.20;67.92;101817.06;5048720;28;20108;-82
2022/03/10 06:09:24;;;;;;;39.38;19.15;;;;;;;0.37;67.77;101820.69;5017933;28;20397;-81
2022/03/10 06:11:50;;;;;;;31.38;19.55;;;;;;;0.39;68.03;101826.63;5027594;28;20081;-82
2022/03/10 06:14:17;;;;;;;31.40;18.42;;;;;;;0.39;67.65;101824.06;5038785;28;20108;-81
2022/03/10 06:16:53;;;;;;;33.88;19.88;;;;;;;0.41;67.53;101824.84;5037296;28;20054;-81
2022/03/10 06:19:20;;;;;;;33.83;19.60;;;;;;;0.52;67.59;101838.09;5037561;28;20068;-81
2022/03/10 06:21:58;;;;;;;30.73;17.73;;;;;;;0.41;67.32;101817.94;5047796;28;20124;-82
2022/03/10 06:24:25;;;;;;;37.60;18.02;;;;;;;0.56;67.00;101827.59;5041008;28;20091;-81
2022/03/10 06:26:51;;;;;;;30.20;18.17;;;;;;;0.67;66.90;101827.16;5038346;28;20073;-81
2022/03/10 06:29:18;;;;;;;34.22;19.25;;;;;;;0.76;66.59;101834.50;5037716;28;20053;-80
2022/03/10 06:31:44;;;;;;;32.83;18.77;;;;;;;0.77;66.10;101828.47;5038068;28;20128;-81
2022/03/10 06:34:11;;;;;;;34.08;19.33;;;;;;;0.87;66.18;101840.06;5039047;28;20128;-81
2022/03/10 06:36:38;;;;;;;35.15;19.15;;;;;;;0.91;65.85;101835.63;5039052;28;20096;-81
2022/03/10 06:39:25;;;;;;;34.80;19.02;;;;;;;1.11;65.56;101834.75;5032454;28;20224;-82
2022/03/10 06:41:52;;;;;;;36.83;18.42;;;;;;;1.71;63.64;101843.25;5048007;28;20047;-81
2022/03/10 06:44:18;;;;;;;29.77;18.25;;;;;;;2.41;61.37;101848.53;5058223;28;20108;-80
2022/03/10 06:46:45;;;;;;;32.70;18.45;;;;;;;2.80;59.65;101847.50;5057775;28;20376;-81
2022/03/10 06:49:12;;;;;;;35.25;18.23;;;;;;;3.30;57.65;101847.53;5058139;28;20140;-80
2022/03/10 06:51:39;;;;;;;34.13;18.92;;;;;;;3.54;57.09;101847.97;5059389;28;20056;-81
2022/03/10 06:54:06;;;;;;;34.72;17.95;;;;;;;3.89;56.26;101844.31;5059071;28;20112;-81
2022/03/10 06:56:34;;;;;;;33.72;18.58;;;;;;;4.36;54.24;101845.19;5059331;28;20132;-82
2022/03/10 06:59:00;;;;;;;32.97;18.45;;;;;;;4.39;53.80;101845.03;5060582;28;20068;-82
2022/03/10 07:01:27;;;;;;;34.33;18.17;;;;;;;4.49;54.32;101853.94;5060298;28;20148;-82
2022/03/10 07:03:57;;;;;;;30.00;18.92;;;;;;;3.91;55.35;101852.00;5059115;28;20059;-81
2022/03/10 07:06:23;;;;;;;35.92;19.88;;;;;;;3.70;56.77;101853.19;5059543;28;20048;-81
2022/03/10 07:08:50;;;;;;;31.08;19.10;;;;;;;4.68;54.41;101846.81;5057848;28;20144;-81
2022/03/10 07:11:18;;;;;;;35.38;18.60;;;;;;;5.13;52.91;101845.84;5058624;28;20071;-81
2022/03/10 07:13:46;;;;;;;32.88;19.27;;;;;;;5.38;52.12;101850.41;5059749;28;20048;-80
2022/03/10 07:16:14;;;;;;;34.75;18.90;;;;;;;5.50;51.12;101854.84;5059012;28;20137;-81
2022/03/10 07:18:40;;;;;;;35.92;19.50;;;;;;;5.91;50.42;101856.69;5060268;28;20045;-81
2022/03/10 07:21:08;;;;;;;31.77;18.48;;;;;;;6.10;49.27;101841.59;5063100;28;20073;-81
2022/03/10 07:23:35;;;;;;;33.17;19.10;;;;;;;6.40;49.10;101853.56;5059195;28;20060;-82
2022/03/10 07:26:01;;;;;;;33.08;19.17;;;;;;;6.56;48.39;101860.28;5063408;28;20080;-82
2022/03/10 07:28:28;;;;;;;29.42;18.73;;;;;;;6.66;48.38;101855.28;5057270;28;20478;-82
2022/03/10 07:30:56;;;;;;;29.65;19.00;;;;;;;6.71;47.78;101862.78;5068610;28;20100;-81
2022/03/10 07:33:23;;;;;;;26.02;18.63;;;;;;;7.05;47.22;101853.59;5070497;28;20060;-81
2022/03/10 07:35:50;;;;;;;30.27;18.50;;;;;;;6.93;47.03;101850.84;5069838;28;20060;-82
2022/03/10 07:38:16;;;;;;;29.27;18.90;;;;;;;7.27;46.48;101861.59;5064641;28;20049;-81
2022/03/10 07:40:43;;;;;;;35.67;19.70;;;;;;;7.64;45.23;101860.69;5065612;28;20087;-82
2022/03/10 07:43:09;;;;;;;31.10;19.90;;;;;;;8.12;45.01;101860.78;5066116;28;20104;-82
2022/03/10 07:45:36;;;;;;;28.45;19.80;;;;;;;8.31;44.34;101855.91;5065108;28;20112;-81
2022/03/10 07:48:05;;;;;;;27.35;17.90;;;;;;;7.81;44.94;101851.72;5064649;28;20055;-81
2022/03/10 07:50:31;;;;;;;40.78;19.15;;;;;;;8.21;44.69;101854.06;5064484;28;20116;-82
2022/03/10 07:52:58;;;;;;;28.55;19.05;;;;;;;7.79;45.41;101858.81;5065232;28;20091;-82
2022/03/10 07:55:25;;;;;;;25.88;16.98;;;;;;;7.46;46.37;101851.59;5063622;28;20108;-82
2022/03/10 07:57:51;;;;;;;30.30;18.17;;;;;;;7.54;46.90;101857.09;5063301;28;20049;-81
2022/03/10 08:00:18;;;;;;;28.88;17.92;;;;;;;7.69;46.00;101854.34;5061137;28;20653;-83
2022/03/10 08:02:45;;;;;;;40.42;18.23;;;;;;;8.06;45.73;101861.19;5061882;28;20117;-82
2022/03/10 08:05:13;;;;;;;33.72;17.65;;;;;;;8.04;45.01;101857.88;5061709;28;20045;-82
2022/03/10 08:07:40;;;;;;;30.33;16.70;;;;;;;8.00;45.29;101856.47;5061237;28;20518;-82
2022/03/10 08:10:08;;;;;;;25.50;17.00;;;;;;;8.55;44.29;101863.72;5060414;28;20112;-82
2022/03/10 08:12:35;;;;;;;26.52;17.75;;;;;;;8.57;43.81;101861.00;5061149;28;20419;-82
2022/03/10 08:15:02;;;;;;;28.08;17.58;;;;;;;8.59;43.61;101859.13;5060101;28;20117;-82
2022/03/10 08:17:29;;;;;;;25.33;17.38;;;;;;;8.11;44.92;101858.28;5061009;28;20133;-82
2022/03/10 08:19:56;;;;;;;24.48;16.17;;;;;;;8.30;43.58;101859.44;5059411;28;20049;-82
2022/03/10 08:22:25;;;;;;;24.83;15.75;;;;;;;7.70;43.80;101856.00;5059740;28;20073;-82
2022/03/10 08:24:52;;;;;;;40.92;20.27;;;;;;;8.21;43.28;101849.69;5059904;28;20132;-82
2022/03/10 08:27:18;;;;;;;26.02;16.42;;;;;;;8.06;43.10;101850.78;5059207;28;20117;-82
2022/03/10 08:29:45;;;;;;;32.72;16.77;;;;;;;8.14;42.85;101848.47;5058817;28;20123;-82
2022/03/10 08:32:16;;;;;;;26.27;17.75;;;;;;;8.09;42.96;101834.91;5059170;28;20151;-80
2022/03/10 08:34:42;;;;;;;26.20;15.82;;;;;;;8.25;42.76;101845.91;5059360;28;20072;-79
2022/03/10 08:37:09;;;;;;;35.97;17.10;;;;;;;8.77;41.06;101836.06;5059141;28;20120;-82
2022/03/10 08:39:37;;;;;;;28.08;16.25;;;;;;;8.90;40.67;101829.81;5061652;28;20313;-83
2022/03/10 08:42:04;;;;;;;25.35;17.00;;;;;;;8.83;40.81;101825.97;5062574;28;20128;-82
2022/03/10 08:44:33;;;;;;;27.15;17.42;;;;;;;8.37;41.28;101830.34;5062331;28;20073;-81
2022/03/10 08:47:00;;;;;;;35.88;18.58;;;;;;;8.35;40.99;101833.06;5062725;28;20084;-81
2022/03/10 08:49:27;;;;;;;55.58;19.42;;;;;;;9.08;40.25;101839.78;5062841;28;20052;-81
2022/03/10 08:51:54;;;;;;;120.75;28.58;;;;;;;8.77;39.65;101825.63;5060887;28;20423;-81
2022/03/10 08:54:21;;;;;;;27.73;17.05;;;;;;;8.55;40.34;101829.81;5061532;28;20048;-81
2022/03/10 08:56:49;;;;;;;35.60;18.33;;;;;;;8.85;40.50;101818.88;5060684;28;20092;-82
2022/03/10 08:59:16;;;;;;;28.17;17.67;;;;;;;9.27;40.18;101819.97;5063495;28;20076;-81
2022/03/10 09:01:42;;;;;;;39.03;18.40;;;;;;;9.55;39.00;101829.09;5066257;28;20041;-82
2022/03/10 09:04:09;;;;;;;27.77;17.27;;;;;;;9.28;38.88;101819.03;5062347;28;20204;-82
2022/03/10 09:06:36;;;;;;;31.40;19.60;;;;;;;8.92;39.25;101825.28;5065255;28;20174;-82
2022/03/10 09:09:03;;;;;;;31.52;18.10;;;;;;;9.19;39.26;101821.50;5066529;28;20072;-82
2022/03/10 09:11:30;;;;;;;46.85;19.80;;;;;;;9.40;39.78;101812.03;5061920;28;20510;-83
2022/03/10 09:13:59;;;;;;;31.80;18.92;;;;;;;9.74;39.66;101815.41;5061641;28;20072;-83
2022/03/10 09:16:26;;;;;;;30.75;18.23;;;;;;;9.84;39.85;101812.91;5060103;28;20109;-83
2022/03/10 09:18:53;;;;;;;29.08;18.13;;;;;;;9.50;39.64;101799.88;5059297;28;20075;-82
2022/03/10 09:21:20;;;;;;;31.15;18.65;;;;;;;9.53;39.67;101794.41;5060893;28;20101;-83
2022/03/10 09:23:47;;;;;;;28.38;19.13;;;;;;;9.01;40.06;101802.03;5060176;28;20075;-82
2022/03/10 09:26:15;;;;;;;34.90;19.27;;;;;;;8.99;39.80;101805.59;5060750;28;20132;-82
2022/03/10 09:28:43;;;;;;;30.45;18.80;;;;;;;9.19;39.45;101803.22;5060406;28;20045;-83
2022/03/10 09:31:12;;;;;;;32.55;18.92;;;;;;;9.39;39.42;101794.69;5060791;28;20041;-82
2022/03/10 09:33:39;;;;;;;54.20;21.27;;;;;;;9.43;39.42;101793.50;5086251;23;20049;-84
2022/03/10 09:36:06;;;;;;;104.72;28.33;;;;;;;9.40;39.05;101806.81;5052917;28;20071;-85
2022/03/10 09:38:32;;;;;;;31.92;18.95;;;;;;;9.44;38.70;101805.63;5041361;28;20129;-85
2022/03/10 09:40:59;;;;;;;33.03;19.27;;;;;;;9.62;39.04;101798.91;5040434;28;20101;-85
2022/03/10 09:43:29;;;;;;;30.15;18.60;;;;;;;9.73;38.64;101798.06;5039826;28;20059;-86
2022/03/10 09:46:01;;;;;;;30.20;19.17;;;;;;;9.86;39.08;101790.91;5040121;28;20116;-84
2022/03/10 09:48:31;;;;;;;31.70;19.77;;;;;;;9.76;39.09;101795.22;5038279;28;20476;-85
2022/03/10 09:50:57;;;;;;;83.07;23.80;;;;;;;9.85;39.04;101796.28;5040048;28;20081;-85
2022/03/10 09:53:24;;;;;;;52.88;21.80;;;;;;;9.99;38.36;101790.75;5038085;28;20081;-85
2022/03/10 09:55:51;;;;;;;87.63;25.45;;;;;;;9.82;37.85;101783.44;5037463;28;20057;-85
2022/03/10 09:58:18;;;;;;;40.78;19.60;;;;;;;9.96;38.53;101796.22;5038335;28;20068;-85
2022/03/10 10:00:45;;;;;;;53.30;19.80;;;;;;;10.25;37.61;101793.91;5037472;28;20132;-86
2022/03/10 10:03:11;;;;;;;36.75;19.65;;;;;;;10.33;38.04;101790.66;5037023;28;20085;-85
2022/03/10 10:05:41;;;;;;;73.40;25.02;;;;;;;10.26;37.55;101796.41;5037675;28;20050;-85
2022/03/10 10:08:11;;;;;;;109.60;28.55;;;;;;;10.49;37.46;101785.81;5037499;28;20113;-86
2022/03/10 10:10:42;;;;;;;47.20;21.42;;;;;;;10.42;36.97;101771.56;5037828;28;20080;-86
2022/03/10 10:13:09;;;;;;;31.95;20.30;;;;;;;10.83;37.54;101782.03;5036427;28;20064;-86
2022/03/10 10:15:37;;;;;;;37.33;20.85;;;;;;;10.83;37.07;101776.81;5037003;28;20132;-86
2022/03/10 10:18:05;;;;;;;30.20;19.65;;;;;;;10.80;36.24;101771.81;5036230;28;20132;-85
2022/03/10 10:20:32;;;;;;;37.38;20.38;;;;;;;11.09;36.90;101781.59;5038371;28;20065;-84
2022/03/10 10:23:16;;;;;;;36.30;19.77;;;;;;;11.08;36.21;101772.09;5039119;28;20092;-85
2022/03/10 10:25:49;;;;;;;38.83;20.90;;;;;;;11.10;35.52;101767.53;5040519;28;20058;-85
2022/03/10 10:28:23;;;;;;;34.42;19.55;;;;;;;11.09;35.07;101771.94;5039140;28;20575;-85
2022/03/10 10:30:53;;;;;;;33.72;20.33;;;;;;;11.42;35.64;101770.81;5037980;28;20132;-86
2022/03/10 10:33:20;;;;;;;38.35;19.55;;;;;;;11.75;35.02;101764.41;5037555;28;20084;-85
2022/03/10 10:35:46;;;;;;;41.45;21.10;;;;;;;11.75;34.73;101758.34;5039109;28;20081;-85
2022/03/10 10:38:28;;;;;;;39.88;19.83;;;;;;;11.73;34.16;101747.16;5041793;28;20133;-84
2022/03/10 10:41:15;;;;;;;35.60;19.97;;;;;;;12.12;34.76;101756.72;5037944;28;20059;-85
2022/03/10 10:43:42;;;;;;;44.97;19.40;;;;;;;12.14;34.97;101756.59;5037915;28;20056;-84
2022/03/10 10:46:10;;;;;;;29.70;19.20;;;;;;;12.23;34.73;101748.72;5036336;28;20207;-85
2022/03/10 10:48:47;;;;;;;30.77;19.15;;;;;;;12.29;33.57;101749.94;5037902;28;20053;-86
2022/03/10 10:51:14;;;;;;;32.67;18.75;;;;;;;12.44;33.17;101750.34;5038673;28;20050;-85
2022/03/10 10:53:42;;;;;;;35.42;18.85;;;;;;;12.53;33.83;101749.50;5036998;28;20113;-85
2022/03/10 10:56:09;;;;;;;32.55;21.38;;;;;;;12.54;33.21;101735.41;5038096;28;20080;-85
2022/03/10 10:58:38;;;;;;;30.88;18.98;;;;;;;12.61;33.19;101744.38;5038417;28;20155;-86
2022/03/10 11:01:07;;;;;;;35.50;19.35;;;;;;;12.56;32.80;101734.28;5037670;28;20086;-85
2022/03/10 11:03:36;;;;;;;37.63;19.02;;;;;;;12.53;32.06;101736.38;5039987;28;20053;-85
2022/03/10 11:06:03;;;;;;;32.70;20.10;;;;;;;13.00;32.31;101728.47;5040716;28;20140;-86
2022/03/10 11:08:30;;;;;;;31.92;18.60;;;;;;;12.92;32.37;101722.13;5048258;28;20052;-85
2022/03/10 11:10:58;;;;;;;32.35;18.48;;;;;;;13.04;32.25;101714.91;5050138;28;20049;-86
2022/03/10 11:13:25;;;;;;;45.92;18.60;;;;;;;13.20;30.79;101716.94;5049715;28;20092;-84
2022/03/10 11:15:53;;;;;;;30.45;17.05;;;;;;;13.37;30.74;101715.28;5041896;28;20118;-86
2022/03/10 11:18:22;;;;;;;26.13;18.33;;;;;;;13.41;30.83;101706.97;5037381;28;20071;-86
2022/03/10 11:20:52;;;;;;;35.47;17.83;;;;;;;13.50;30.51;101706.06;5037151;28;20467;-85
2022/03/10 11:23:29;;;;;;;33.10;17.70;;;;;;;13.56;29.94;101712.53;5037598;28;20136;-86
2022/03/10 11:26:02;;;;;;;34.55;18.13;;;;;;;13.64;30.16;101703.91;5036726;28;20059;-86
2022/03/10 11:28:31;;;;;;;29.52;18.05;;;;;;;13.69;30.10;101694.59;5043071;28;20125;-86
2022/03/10 11:31:01;;;;;;;30.17;18.92;;;;;;;13.68;30.01;101694.75;5053264;28;20064;-86
2022/03/10 11:33:31;;;;;;;36.92;18.60;;;;;;;13.78;29.55;101695.47;5051512;28;20048;-85
2022/03/10 11:35:58;;;;;;;27.15;17.88;;;;;;;13.67;28.97;101688.66;5047906;28;20057;-85
2022/03/10 11:38:49;;;;;;;25.90;18.10;;;;;;;13.64;29.04;101693.41;5038219;28;20045;-85
2022/03/10 11:41:17;;;;;;;35.03;18.00;;;;;;;13.96;29.23;101677.88;5039223;28;20144;-85
2022/03/10 11:43:56;;;;;;;27.95;17.75;;;;;;;14.03;29.63;101672.84;5039337;28;20133;-85
2022/03/10 11:46:24;;;;;;;36.88;17.63;;;;;;;14.06;28.69;101676.00;5039032;28;20045;-85
2022/03/10 11:49:09;;;;;;;28.02;18.38;;;;;;;13.97;28.68;101676.91;5039670;28;20053;-85
2022/03/10 11:51:45;;;;;;;27.50;17.08;;;;;;;14.10;28.92;101663.34;5039182;28;20419;-85
2022/03/10 11:54:12;;;;;;;29.42;17.67;;;;;;;14.30;28.68;101670.06;5038566;28;20145;-86
2022/03/10 11:57:07;;;;;;;28.92;17.08;;;;;;;14.17;28.40;101654.69;5039603;28;20203;-85